Vision of The Seas — C6SE8 — position and weather

sailwx.info

Track history (hours):
 
Tides and Currents Weather Stations Pressure Air Temp Water Temp Dewpoint Dewpoint Depression Visibility Wind Speed Wind Dir Waves Ship Positions

Vision of The Seas

Operator: Royal Caribbean Cruises Ltd

Last reported at 2017-Sep-13 23:11 UTC. Time now 2017-Sep-23 02:22 UTC.
Position N 43°56' W 068°52'.
Warning: this ship's position is 9 days out of date.

Type: Passenger vessel. MMSI: 311321000.

Date/timePositionNaut miles runAvg speedWind from/ knotsBaromVisibWave heightAir tempDewpointWater temp
2017-Sep-13 23:11N 43°56' W 068°52'515.1
2017-Sep-13 22:52N 43°59' W 068°57'714.8
2017-Sep-13 22:21N 44°06' W 069°01'3 5.3
2017-Sep-13 21:52N 44°06' W 069°04'0 0.1
2017-Sep-13 21:26N 44°06' W 069°04'0 0.1
2017-Sep-13 20:59N 44°06' W 069°04'0 0.0
2017-Sep-13 20:29N 44°06' W 069°04'0 0.1
2017-Sep-13 19:59N 44°06' W 069°04'0 0.0
2017-Sep-13 19:29N 44°06' W 069°04'0 0.0
2017-Sep-13 18:53N 44°06' W 069°04'0 0.1
2017-Sep-13 18:29N 44°06' W 069°04'0 0.1
2017-Sep-13 17:59N 44°06' W 069°04'0 0.0
2017-Sep-13 17:29N 44°06' W 069°04'0 0.0
2017-Sep-13 16:59N 44°06' W 069°04'0 0.0
2017-Sep-13 16:29N 44°06' W 069°04'0 0.0
2017-Sep-13 15:59N 44°06' W 069°04'0 0.0
2017-Sep-13 15:24N 44°06' W 069°04'0 0.0
2017-Sep-13 14:08N 44°06' W 069°04'0 0.0
2017-Sep-13 11:29N 44°06' W 069°04'0 0.0
2017-Sep-13 10:41N 44°06' W 069°04'1 3.1
2017-Sep-13 10:21N 44°06' W 069°03'3 9.0
2017-Sep-13 09:58N 44°03' W 069°01'1012.9
2017-Sep-13 09:13N 43°56' W 068°52'211.4
2017-Sep-13 09:00N 43°56' W 068°49'48 1.5
2017-Sep-12 00:57N 43°25' W 069°40'511.4
2017-Sep-12 00:30N 43°26' W 069°46'611.3
2017-Sep-12 00:00N 43°28' W 069°54'611.3
2017-Sep-11 23:30N 43°29' W 070°01'611.1
2017-Sep-11 23:00N 43°33' W 070°07'612.7
2017-Sep-11 22:30N 43°38' W 070°13'2 4.1
2017-Sep-11 21:58N 43°39' W 070°15'0 0.0
2017-Sep-11 21:28N 43°39' W 070°15'0 0.0
2017-Sep-11 20:58N 43°39' W 070°15'0 0.0
2017-Sep-11 20:28N 43°39' W 070°15'0 0.0
2017-Sep-11 19:58N 43°39' W 070°15'0 0.0
2017-Sep-11 19:28N 43°39' W 070°15'0 0.0
2017-Sep-11 18:58N 43°39' W 070°15'0 0.0
2017-Sep-11 18:28N 43°39' W 070°15'0 0.0
2017-Sep-11 17:58N 43°39' W 070°15'0 0.0
2017-Sep-11 17:28N 43°39' W 070°15'0 0.0
2017-Sep-11 16:52N 43°39' W 070°15'0 0.0
2017-Sep-11 16:28N 43°39' W 070°15'0 0.0
2017-Sep-11 15:58N 43°39' W 070°15'0 0.0
2017-Sep-11 15:28N 43°39' W 070°15'0 0.0
2017-Sep-11 14:58N 43°39' W 070°15'0 0.0
2017-Sep-11 14:25N 43°39' W 070°15'0 0.0
2017-Sep-11 13:58N 43°39' W 070°15'0 0.0
2017-Sep-11 13:25N 43°39' W 070°15'0 0.0
2017-Sep-11 12:58N 43°39' W 070°15'0 0.0
2017-Sep-11 12:28N 43°39' W 070°15'0 0.0
2017-Sep-11 11:58N 43°39' W 070°15'0 0.0
2017-Sep-11 11:28N 43°39' W 070°15'0 0.0
2017-Sep-11 10:58N 43°39' W 070°15'1 2.6
2017-Sep-11 10:30N 43°39' W 070°13'612.1
2017-Sep-11 10:00N 43°34' W 070°09'611.1
2017-Sep-11 09:30N 43°30' W 070°04'5 9.5
2017-Sep-11 09:00N 43°26' W 070°01'5 9.5
2017-Sep-11 08:30N 43°21' W 069°59'5 9.2
2017-Sep-11 08:00N 43°17' W 069°57'5 9.2
2017-Sep-11 07:30N 43°12' W 069°55'5 9.1
2017-Sep-11 07:00N 43°08' W 069°53'5 9.2
2017-Sep-11 06:25N 43°03' W 069°51'4 8.5
2017-Sep-11 05:59N 42°59' W 069°52'4 8.3
2017-Sep-11 05:31N 42°55' W 069°53'4 8.1
2017-Sep-11 05:00N 42°51' W 069°54'4 8.1
2017-Sep-11 04:31N 42°48' W 069°57'4 9.0
2017-Sep-11 04:00N 42°45' W 070°02'5 9.4
2017-Sep-11 03:30N 42°42' W 070°07'5 9.3
2017-Sep-11 03:00N 42°40' W 070°13'4 8.9
2017-Sep-11 02:30N 42°38' W 070°18'4 8.8
2017-Sep-11 02:00N 42°36' W 070°24'4 8.9
2017-Sep-11 01:30N 42°34' W 070°29'4 9.0
2017-Sep-11 01:00N 42°32' W 070°34'4 8.6
2017-Sep-11 00:30N 42°30' W 070°39'4 8.9
2017-Sep-11 00:00N 42°27' W 070°44'5 9.2
2017-Sep-10 23:30N 42°24' W 070°49'4 8.7
2017-Sep-10 23:00N 42°23' W 070°54'510.3
2017-Sep-10 22:30N 42°21' W 071°01'1 1.6
2017-Sep-10 21:58N 42°21' W 071°02'0 0.0
2017-Sep-10 21:25N 42°21' W 071°02'0 0.0
2017-Sep-10 20:58N 42°21' W 071°02'0 0.0
2017-Sep-10 20:28N 42°21' W 071°02'0 0.0
2017-Sep-10 19:58N 42°21' W 071°02'0 0.0
2017-Sep-10 19:28N 42°21' W 071°02'0 0.0
2017-Sep-10 18:58N 42°21' W 071°02'0 0.0
2017-Sep-10 18:28N 42°21' W 071°02'0 0.0
2017-Sep-10 17:58N 42°21' W 071°02'0 0.0
2017-Sep-10 17:28N 42°21' W 071°02'0 0.0
2017-Sep-10 16:55N 42°21' W 071°02'0 0.0
2017-Sep-10 16:28N 42°21' W 071°02'0 0.0
2017-Sep-10 15:58N 42°21' W 071°02'0 0.0
2017-Sep-10 15:28N 42°21' W 071°02'0 0.0
2017-Sep-10 14:58N 42°21' W 071°02'0 0.0
2017-Sep-10 13:58N 42°21' W 071°02'0 0.0
2017-Sep-10 13:28N 42°21' W 071°02'0 0.0
2017-Sep-10 12:58N 42°21' W 071°02'0 0.0
2017-Sep-10 12:28N 42°21' W 071°02'0 0.0
2017-Sep-10 11:58N 42°21' W 071°02'0 0.0
2017-Sep-10 11:28N 42°21' W 071°02'0 0.0
2017-Sep-10 10:58N 42°21' W 071°02'0 0.6
2017-Sep-10 10:30N 42°21' W 071°01'3 6.7
2017-Sep-10 10:00N 42°20' W 070°57'611.1
2017-Sep-10 09:31N 42°24' W 070°51'612.1
2017-Sep-10 09:01N 42°23' W 070°43'611.7
2017-Sep-10 08:30N 42°22' W 070°35'5 9.0
2017-Sep-10 08:00N 42°21' W 070°29'4 8.5
2017-Sep-10 07:30N 42°21' W 070°23'4 8.3
2017-Sep-10 07:00N 42°21' W 070°18'4 9.0
2017-Sep-10 06:30N 42°20' W 070°12'5 9.4
2017-Sep-10 06:00N 42°20' W 070°05'4 8.8
2017-Sep-10 05:30N 42°19' W 069°59'4 8.8
2017-Sep-10 05:00N 42°15' W 069°57'4 8.8
2017-Sep-10 04:30N 42°11' W 069°54'4 8.9
2017-Sep-10 04:00N 42°07' W 069°51'5 9.5
2017-Sep-10 03:30N 42°03' W 069°49'51 9.0
2017-Sep-09 21:53N 41°18' W 069°18'94 4.0
2017-Sep-08 22:16N 41°27' W 071°22'3 9.3
2017-Sep-08 21:56N 41°29' W 071°20'0 0.1
2017-Sep-08 21:13N 41°29' W 071°20'0 0.0
2017-Sep-08 14:43N 41°29' W 071°20'125 8.6
2017-Sep-08 00:15N 40°26' W 073°43'416.1
2017-Sep-08 00:00N 40°27' W 073°48'613.1
2017-Sep-07 23:30N 40°30' W 073°56'713.7
2017-Sep-07 23:00N 40°35' W 074°02'510.6
2017-Sep-07 22:31N 40°40' W 074°03'2 4.1
2017-Sep-07 22:01N 40°42' W 074°02'2 5.0
2017-Sep-07 21:31N 40°40' W 074°03'1 1.4
2017-Sep-07 20:58N 40°40' W 074°04'0 0.0
2017-Sep-07 20:28N 40°40' W 074°04'0 0.0
2017-Sep-07 19:58N 40°40' W 074°04'0 0.0
2017-Sep-07 19:28N 40°40' W 074°04'0 0.0
2017-Sep-07 18:58N 40°40' W 074°04'0 0.0
2017-Sep-07 18:28N 40°40' W 074°04'0 0.0
2017-Sep-07 17:58N 40°40' W 074°04'0 0.0
2017-Sep-07 17:28N 40°40' W 074°04'0 0.0
2017-Sep-07 16:58N 40°40' W 074°04'0 0.0
2017-Sep-07 16:28N 40°40' W 074°04'0 0.0
2017-Sep-07 15:55N 40°40' W 074°04'0 0.0
2017-Sep-07 15:28N 40°40' W 074°04'0 0.0
2017-Sep-07 14:58N 40°40' W 074°04'0 0.0
2017-Sep-07 14:28N 40°40' W 074°04'0 0.0
2017-Sep-07 13:58N 40°40' W 074°04'0 0.0
2017-Sep-07 13:28N 40°40' W 074°04'0 0.0
2017-Sep-07 12:58N 40°40' W 074°04'0 0.0
2017-Sep-07 12:28N 40°40' W 074°04'0 0.0
2017-Sep-07 11:58N 40°40' W 074°04'0 0.0
2017-Sep-07 11:28N 40°40' W 074°04'0 0.0
2017-Sep-07 10:58N 40°40' W 074°04'0 0.0
2017-Sep-07 10:28N 40°40' W 074°04'0 0.0
2017-Sep-07 10:00N 40°40' W 074°04'1 2.4
2017-Sep-07 09:30N 40°39' W 074°03'510.2
2017-Sep-07 09:00N 40°34' W 074°02'612.9
2017-Sep-07 08:30N 40°30' W 073°56'613.1
2017-Sep-07 08:00N 40°27' W 073°48'611.5
2017-Sep-07 07:30N 40°28' W 073°40'  
2017-Sep-04 22:16N 47°11' W 052°38'619.3
2017-Sep-04 21:56N 47°18' W 052°36'1019.5
2017-Sep-04 21:26N 47°27' W 052°34'714.3
2017-Sep-04 20:55N 47°34' W 052°39'2 5.3
2017-Sep-04 20:29N 47°34' W 052°42'0 0.0
2017-Sep-04 20:00N 47°34' W 052°42'0 0.0
2017-Sep-04 19:30N 47°34' W 052°42'0 0.0
2017-Sep-04 18:57N 47°34' W 052°42'0 0.0
2017-Sep-04 18:30N 47°34' W 052°42'0 0.0
2017-Sep-04 18:00N 47°34' W 052°42'0 0.0
2017-Sep-04 17:30N 47°34' W 052°42'0 0.0
2017-Sep-04 17:00N 47°34' W 052°42'0 0.0
2017-Sep-04 16:30N 47°34' W 052°42'0 0.0
2017-Sep-04 15:54N 47°34' W 052°42'0 0.0
2017-Sep-04 15:30N 47°34' W 052°42'0 0.0
2017-Sep-04 14:57N 47°34' W 052°42'0 0.0
2017-Sep-04 14:30N 47°34' W 052°42'0 0.0
2017-Sep-04 13:57N 47°34' W 052°42'0 0.0
2017-Sep-04 13:27N 47°34' W 052°42'0 0.0
2017-Sep-04 12:57N 47°34' W 052°42'0 0.0
2017-Sep-04 12:30N 47°34' W 052°42'0 0.0
2017-Sep-04 11:57N 47°34' W 052°42'0 0.0
2017-Sep-04 11:27N 47°34' W 052°42'0 0.0
2017-Sep-04 10:51N 47°34' W 052°42'0 0.0
2017-Sep-04 10:30N 47°34' W 052°42'0 0.0
2017-Sep-04 10:00N 47°34' W 052°42'0 0.2
2017-Sep-04 09:26N 47°34' W 052°42'3 6.0
2017-Sep-04 09:00N 47°34' W 052°38'712.2
2017-Sep-04 08:25N 47°39' W 052°32'813.8
2017-Sep-04 07:52N 47°45' W 052°24'  
Track history (hours):
 
Tides and Currents Weather Stations Pressure Air Temp Water Temp Dewpoint Dewpoint Depression Visibility Wind Speed Wind Dir Waves Ship Positions

Vision of The Seas

Operator: Royal Caribbean Cruises Ltd

Last reported at 2017-Sep-13 23:11 UTC. Time now 2017-Sep-23 02:22 UTC.
Position N 43°56' W 068°52'.
Warning: this ship's position is 9 days out of date.

Type: Passenger vessel. MMSI: 311321000.

Date/timePositionNaut miles runAvg speedWind from/ knotsBaromVisibWave heightAir tempDewpointWater temp
2017-Sep-13 23:11N 43°56' W 068°52'515.1
2017-Sep-13 22:52N 43°59' W 068°57'714.8
2017-Sep-13 22:21N 44°06' W 069°01'3 5.3
2017-Sep-13 21:52N 44°06' W 069°04'0 0.1
2017-Sep-13 21:26N 44°06' W 069°04'0 0.1
2017-Sep-13 20:59N 44°06' W 069°04'0 0.0
2017-Sep-13 20:29N 44°06' W 069°04'0 0.1
2017-Sep-13 19:59N 44°06' W 069°04'0 0.0
2017-Sep-13 19:29N 44°06' W 069°04'0 0.0
2017-Sep-13 18:53N 44°06' W 069°04'0 0.1
2017-Sep-13 18:29N 44°06' W 069°04'0 0.1
2017-Sep-13 17:59N 44°06' W 069°04'0 0.0
2017-Sep-13 17:29N 44°06' W 069°04'0 0.0
2017-Sep-13 16:59N 44°06' W 069°04'0 0.0
2017-Sep-13 16:29N 44°06' W 069°04'0 0.0
2017-Sep-13 15:59N 44°06' W 069°04'0 0.0
2017-Sep-13 15:24N 44°06' W 069°04'0 0.0
2017-Sep-13 14:08N 44°06' W 069°04'0 0.0
2017-Sep-13 11:29N 44°06' W 069°04'0 0.0
2017-Sep-13 10:41N 44°06' W 069°04'1 3.1
2017-Sep-13 10:21N 44°06' W 069°03'3 9.0
2017-Sep-13 09:58N 44°03' W 069°01'1012.9
2017-Sep-13 09:13N 43°56' W 068°52'211.4
2017-Sep-13 09:00N 43°56' W 068°49'48 1.5
2017-Sep-12 00:57N 43°25' W 069°40'511.4
2017-Sep-12 00:30N 43°26' W 069°46'611.3
2017-Sep-12 00:00N 43°28' W 069°54'611.3
2017-Sep-11 23:30N 43°29' W 070°01'611.1
2017-Sep-11 23:00N 43°33' W 070°07'612.7
2017-Sep-11 22:30N 43°38' W 070°13'2 4.1
2017-Sep-11 21:58N 43°39' W 070°15'0 0.0
2017-Sep-11 21:28N 43°39' W 070°15'0 0.0
2017-Sep-11 20:58N 43°39' W 070°15'0 0.0
2017-Sep-11 20:28N 43°39' W 070°15'0 0.0
2017-Sep-11 19:58N 43°39' W 070°15'0 0.0
2017-Sep-11 19:28N 43°39' W 070°15'0 0.0
2017-Sep-11 18:58N 43°39' W 070°15'0 0.0
2017-Sep-11 18:28N 43°39' W 070°15'0 0.0
2017-Sep-11 17:58N 43°39' W 070°15'0 0.0
2017-Sep-11 17:28N 43°39' W 070°15'0 0.0
2017-Sep-11 16:52N 43°39' W 070°15'0 0.0
2017-Sep-11 16:28N 43°39' W 070°15'0 0.0
2017-Sep-11 15:58N 43°39' W 070°15'0 0.0
2017-Sep-11 15:28N 43°39' W 070°15'0 0.0
2017-Sep-11 14:58N 43°39' W 070°15'0 0.0
2017-Sep-11 14:25N 43°39' W 070°15'0 0.0
2017-Sep-11 13:58N 43°39' W 070°15'0 0.0
2017-Sep-11 13:25N 43°39' W 070°15'0 0.0
2017-Sep-11 12:58N 43°39' W 070°15'0 0.0
2017-Sep-11 12:28N 43°39' W 070°15'0 0.0
2017-Sep-11 11:58N 43°39' W 070°15'0 0.0
2017-Sep-11 11:28N 43°39' W 070°15'0 0.0
2017-Sep-11 10:58N 43°39' W 070°15'1 2.6
2017-Sep-11 10:30N 43°39' W 070°13'612.1
2017-Sep-11 10:00N 43°34' W 070°09'611.1
2017-Sep-11 09:30N 43°30' W 070°04'5 9.5
2017-Sep-11 09:00N 43°26' W 070°01'5 9.5
2017-Sep-11 08:30N 43°21' W 069°59'5 9.2
2017-Sep-11 08:00N 43°17' W 069°57'5 9.2
2017-Sep-11 07:30N 43°12' W 069°55'5 9.1
2017-Sep-11 07:00N 43°08' W 069°53'5 9.2
2017-Sep-11 06:25N 43°03' W 069°51'4 8.5
2017-Sep-11 05:59N 42°59' W 069°52'4 8.3
2017-Sep-11 05:31N 42°55' W 069°53'4 8.1
2017-Sep-11 05:00N 42°51' W 069°54'4 8.1
2017-Sep-11 04:31N 42°48' W 069°57'4 9.0
2017-Sep-11 04:00N 42°45' W 070°02'5 9.4
2017-Sep-11 03:30N 42°42' W 070°07'5 9.3
2017-Sep-11 03:00N 42°40' W 070°13'4 8.9
2017-Sep-11 02:30N 42°38' W 070°18'4 8.8
2017-Sep-11 02:00N 42°36' W 070°24'4 8.9
2017-Sep-11 01:30N 42°34' W 070°29'4 9.0
2017-Sep-11 01:00N 42°32' W 070°34'4 8.6
2017-Sep-11 00:30N 42°30' W 070°39'4 8.9
2017-Sep-11 00:00N 42°27' W 070°44'5 9.2
2017-Sep-10 23:30N 42°24' W 070°49'4 8.7
2017-Sep-10 23:00N 42°23' W 070°54'510.3
2017-Sep-10 22:30N 42°21' W 071°01'1 1.6
2017-Sep-10 21:58N 42°21' W 071°02'0 0.0
2017-Sep-10 21:25N 42°21' W 071°02'0 0.0
2017-Sep-10 20:58N 42°21' W 071°02'0 0.0
2017-Sep-10 20:28N 42°21' W 071°02'0 0.0
2017-Sep-10 19:58N 42°21' W 071°02'0 0.0
2017-Sep-10 19:28N 42°21' W 071°02'0 0.0
2017-Sep-10 18:58N 42°21' W 071°02'0 0.0
2017-Sep-10 18:28N 42°21' W 071°02'0 0.0
2017-Sep-10 17:58N 42°21' W 071°02'0 0.0
2017-Sep-10 17:28N 42°21' W 071°02'0 0.0
2017-Sep-10 16:55N 42°21' W 071°02'0 0.0
2017-Sep-10 16:28N 42°21' W 071°02'0 0.0
2017-Sep-10 15:58N 42°21' W 071°02'0 0.0
2017-Sep-10 15:28N 42°21' W 071°02'0 0.0
2017-Sep-10 14:58N 42°21' W 071°02'0 0.0
2017-Sep-10 13:58N 42°21' W 071°02'0 0.0
2017-Sep-10 13:28N 42°21' W 071°02'0 0.0
2017-Sep-10 12:58N 42°21' W 071°02'0 0.0
2017-Sep-10 12:28N 42°21' W 071°02'0 0.0
2017-Sep-10 11:58N 42°21' W 071°02'0 0.0
2017-Sep-10 11:28N 42°21' W 071°02'0 0.0
2017-Sep-10 10:58N 42°21' W 071°02'0 0.6
2017-Sep-10 10:30N 42°21' W 071°01'3 6.7
2017-Sep-10 10:00N 42°20' W 070°57'611.1
2017-Sep-10 09:31N 42°24' W 070°51'612.1
2017-Sep-10 09:01N 42°23' W 070°43'611.7
2017-Sep-10 08:30N 42°22' W 070°35'5 9.0
2017-Sep-10 08:00N 42°21' W 070°29'4 8.5
2017-Sep-10 07:30N 42°21' W 070°23'4 8.3
2017-Sep-10 07:00N 42°21' W 070°18'4 9.0
2017-Sep-10 06:30N 42°20' W 070°12'5 9.4
2017-Sep-10 06:00N 42°20' W 070°05'4 8.8
2017-Sep-10 05:30N 42°19' W 069°59'4 8.8
2017-Sep-10 05:00N 42°15' W 069°57'4 8.8
2017-Sep-10 04:30N 42°11' W 069°54'4 8.9
2017-Sep-10 04:00N 42°07' W 069°51'5 9.5
2017-Sep-10 03:30N 42°03' W 069°49'51 9.0
2017-Sep-09 21:53N 41°18' W 069°18'94 4.0
2017-Sep-08 22:16N 41°27' W 071°22'3 9.3
2017-Sep-08 21:56N 41°29' W 071°20'0 0.1
2017-Sep-08 21:13N 41°29' W 071°20'0 0.0
2017-Sep-08 14:43N 41°29' W 071°20'125 8.6
2017-Sep-08 00:15N 40°26' W 073°43'416.1
2017-Sep-08 00:00N 40°27' W 073°48'613.1
2017-Sep-07 23:30N 40°30' W 073°56'713.7
2017-Sep-07 23:00N 40°35' W 074°02'510.6
2017-Sep-07 22:31N 40°40' W 074°03'2 4.1
2017-Sep-07 22:01N 40°42' W 074°02'2 5.0
2017-Sep-07 21:31N 40°40' W 074°03'1 1.4
2017-Sep-07 20:58N 40°40' W 074°04'0 0.0
2017-Sep-07 20:28N 40°40' W 074°04'0 0.0
2017-Sep-07 19:58N 40°40' W 074°04'0 0.0
2017-Sep-07 19:28N 40°40' W 074°04'0 0.0
2017-Sep-07 18:58N 40°40' W 074°04'0 0.0
2017-Sep-07 18:28N 40°40' W 074°04'0 0.0
2017-Sep-07 17:58N 40°40' W 074°04'0 0.0
2017-Sep-07 17:28N 40°40' W 074°04'0 0.0
2017-Sep-07 16:58N 40°40' W 074°04'0 0.0
2017-Sep-07 16:28N 40°40' W 074°04'0 0.0
2017-Sep-07 15:55N 40°40' W 074°04'0 0.0
2017-Sep-07 15:28N 40°40' W 074°04'0 0.0
2017-Sep-07 14:58N 40°40' W 074°04'0 0.0
2017-Sep-07 14:28N 40°40' W 074°04'0 0.0
2017-Sep-07 13:58N 40°40' W 074°04'0 0.0
2017-Sep-07 13:28N 40°40' W 074°04'0 0.0
2017-Sep-07 12:58N 40°40' W 074°04'0 0.0
2017-Sep-07 12:28N 40°40' W 074°04'0 0.0
2017-Sep-07 11:58N 40°40' W 074°04'0 0.0
2017-Sep-07 11:28N 40°40' W 074°04'0 0.0
2017-Sep-07 10:58N 40°40' W 074°04'0 0.0
2017-Sep-07 10:28N 40°40' W 074°04'0 0.0
2017-Sep-07 10:00N 40°40' W 074°04'1 2.4
2017-Sep-07 09:30N 40°39' W 074°03'510.2
2017-Sep-07 09:00N 40°34' W 074°02'612.9
2017-Sep-07 08:30N 40°30' W 073°56'613.1
2017-Sep-07 08:00N 40°27' W 073°48'611.5
2017-Sep-07 07:30N 40°28' W 073°40'  
2017-Sep-04 22:16N 47°11' W 052°38'619.3
2017-Sep-04 21:56N 47°18' W 052°36'1019.5
2017-Sep-04 21:26N 47°27' W 052°34'714.3
2017-Sep-04 20:55N 47°34' W 052°39'2 5.3
2017-Sep-04 20:29N 47°34' W 052°42'0 0.0
2017-Sep-04 20:00N 47°34' W 052°42'0 0.0
2017-Sep-04 19:30N 47°34' W 052°42'0 0.0
2017-Sep-04 18:57N 47°34' W 052°42'0 0.0
2017-Sep-04 18:30N 47°34' W 052°42'0 0.0
2017-Sep-04 18:00N 47°34' W 052°42'0 0.0
2017-Sep-04 17:30N 47°34' W 052°42'0 0.0
2017-Sep-04 17:00N 47°34' W 052°42'0 0.0
2017-Sep-04 16:30N 47°34' W 052°42'0 0.0
2017-Sep-04 15:54N 47°34' W 052°42'0 0.0
2017-Sep-04 15:30N 47°34' W 052°42'0 0.0
2017-Sep-04 14:57N 47°34' W 052°42'0 0.0
2017-Sep-04 14:30N 47°34' W 052°42'0 0.0
2017-Sep-04 13:57N 47°34' W 052°42'0 0.0
2017-Sep-04 13:27N 47°34' W 052°42'0 0.0
2017-Sep-04 12:57N 47°34' W 052°42'0 0.0
2017-Sep-04 12:30N 47°34' W 052°42'0 0.0
2017-Sep-04 11:57N 47°34' W 052°42'0 0.0
2017-Sep-04 11:27N 47°34' W 052°42'0 0.0
2017-Sep-04 10:51N 47°34' W 052°42'0 0.0
2017-Sep-04 10:30N 47°34' W 052°42'0 0.0
2017-Sep-04 10:00N 47°34' W 052°42'0 0.2
2017-Sep-04 09:26N 47°34' W 052°42'3 6.0
2017-Sep-04 09:00N 47°34' W 052°38'712.2
2017-Sep-04 08:25N 47°39' W 052°32'813.8
2017-Sep-04 07:52N 47°45' W 052°24'  

Dump ship's entire track history